createdAt,value
2019-03-30T00:00:34.232Z,8.78
2019-03-30T00:01:33.946Z,8.66
2019-03-30T00:02:37.954Z,8.7
2019-03-30T00:03:34.443Z,8.69
2019-03-30T00:04:34.429Z,8.7
2019-03-30T00:05:34.170Z,8.74
2019-03-30T00:06:34.159Z,8.78
2019-03-30T00:07:34.420Z,8.71
2019-03-30T00:08:34.144Z,8.74
2019-03-30T00:09:34.382Z,8.82
2019-03-30T00:10:34.385Z,8.85
2019-03-30T00:11:34.399Z,8.95
2019-03-30T00:12:34.373Z,8.89
2019-03-30T00:13:34.117Z,8.88
2019-03-30T00:14:34.113Z,8.84
2019-03-30T00:15:34.130Z,8.79
2019-03-30T00:16:34.116Z,8.79
2019-03-30T00:17:34.097Z,8.79
2019-03-30T00:18:33.847Z,8.69
2019-03-30T00:19:40.050Z,8.71
2019-03-30T00:20:34.093Z,8.82
2019-03-30T00:21:34.116Z,8.73
2019-03-30T00:22:34.068Z,8.69
2019-03-30T00:23:34.295Z,8.56
2019-03-30T00:24:34.303Z,8.58
2019-03-30T00:25:34.068Z,8.6
2019-03-30T00:26:34.028Z,8.58
2019-03-30T00:27:34.022Z,8.56
2019-03-30T00:28:34.016Z,8.56
2019-03-30T00:29:34.025Z,8.46
2019-03-30T00:30:34.029Z,8.44
2019-03-30T00:31:33.994Z,8.41
2019-03-30T00:32:33.987Z,8.44
2019-03-30T00:33:33.984Z,8.42
2019-03-30T00:34:33.965Z,8.36
2019-03-30T00:35:34.220Z,8.37
2019-03-30T00:36:33.962Z,8.42
2019-03-30T00:37:34.232Z,8.41
2019-03-30T00:38:34.508Z,8.38
2019-03-30T00:39:34.205Z,8.38
2019-03-30T00:40:33.971Z,8.42
2019-03-30T00:41:34.176Z,8.3
2019-03-30T00:42:33.925Z,8.44
2019-03-30T00:43:33.906Z,8.27
2019-03-30T00:44:34.154Z,8.23
2019-03-30T00:45:33.955Z,8.18
2019-03-30T00:46:33.689Z,8.1
2019-03-30T00:47:33.902Z,8.19
2019-03-30T00:48:34.747Z,8.16
2019-03-30T00:49:33.641Z,8.13
2019-03-30T00:50:33.763Z,8.18
2019-03-30T00:51:33.866Z,8.03
2019-03-30T00:52:34.113Z,8.08
2019-03-30T00:53:34.107Z,7.98
2019-03-30T00:54:34.070Z,7.91
2019-03-30T00:55:33.887Z,8
2019-03-30T00:56:33.815Z,7.97
2019-03-30T00:57:33.811Z,8.05
2019-03-30T00:58:33.809Z,7.97
2019-03-30T00:59:33.546Z,7.98
2019-03-30T01:00:33.804Z,8.03
2019-03-30T01:01:33.784Z,8.01
2019-03-30T01:02:33.775Z,8.08
2019-03-30T01:03:33.766Z,8.06
2019-03-30T01:04:33.519Z,7.91
2019-03-30T01:05:33.527Z,8
2019-03-30T01:06:33.747Z,7.9
2019-03-30T01:07:33.486Z,7.91
2019-03-30T01:08:33.734Z,7.88
2019-03-30T01:09:33.722Z,7.8
2019-03-30T01:10:33.997Z,7.77
2019-03-30T01:11:33.704Z,7.82
2019-03-30T01:12:33.700Z,7.9
2019-03-30T01:13:33.701Z,7.93
2019-03-30T01:14:33.705Z,7.88
2019-03-30T01:15:33.737Z,7.93
2019-03-30T01:16:33.681Z,7.9
2019-03-30T01:17:33.667Z,7.93
2019-03-30T01:18:33.428Z,7.98
2019-03-30T01:19:33.402Z,7.91
2019-03-30T01:20:33.908Z,7.97
2019-03-30T01:21:33.912Z,7.98
2019-03-30T01:22:33.383Z,7.97
2019-03-30T01:23:33.890Z,7.95
2019-03-30T01:24:33.417Z,7.85
2019-03-30T01:25:33.866Z,7.95
2019-03-30T01:26:33.671Z,7.93
2019-03-30T01:27:33.605Z,7.98
2019-03-30T01:28:33.834Z,7.93
2019-03-30T01:29:33.828Z,7.94
2019-03-30T01:30:33.592Z,7.94
2019-03-30T01:31:33.822Z,7.88
2019-03-30T01:32:34.966Z,7.91
2019-03-30T01:33:33.584Z,7.88
2019-03-30T01:34:33.549Z,7.79
2019-03-30T01:35:33.727Z,7.75
2019-03-30T01:36:33.539Z,7.7
2019-03-30T01:37:33.774Z,7.76
2019-03-30T01:38:33.512Z,7.7
2019-03-30T01:39:33.798Z,7.75
2019-03-30T01:40:33.590Z,7.67
2019-03-30T01:41:33.736Z,7.73
2019-03-30T01:42:33.489Z,7.7
2019-03-30T01:43:33.485Z,7.57
2019-03-30T01:44:33.474Z,7.54
2019-03-30T01:45:33.811Z,7.54
2019-03-30T01:46:33.711Z,7.6
2019-03-30T01:47:33.725Z,7.56
2019-03-30T01:48:33.209Z,7.66
2019-03-30T01:49:33.439Z,7.58
2019-03-30T01:50:33.709Z,7.67
2019-03-30T01:51:33.690Z,7.76
2019-03-30T01:52:33.442Z,7.72
2019-03-30T01:53:33.664Z,7.72
2019-03-30T01:54:33.410Z,7.85
2019-03-30T01:55:33.423Z,7.87
2019-03-30T01:56:33.421Z,7.88
2019-03-30T01:57:33.378Z,7.93
2019-03-30T01:58:33.184Z,7.9
2019-03-30T01:59:33.381Z,7.9
2019-03-30T02:00:33.143Z,7.85
2019-03-30T02:01:33.350Z,7.97
2019-03-30T02:02:33.098Z,7.95
2019-03-30T02:03:33.086Z,7.87
2019-03-30T02:04:33.329Z,7.91
2019-03-30T02:05:33.374Z,7.82
2019-03-30T02:06:33.083Z,7.97
2019-03-30T02:07:33.304Z,7.94
2019-03-30T02:08:33.293Z,7.91
2019-03-30T02:09:33.300Z,7.82
2019-03-30T02:10:33.535Z,7.75
2019-03-30T02:11:33.337Z,7.76
2019-03-30T02:12:33.025Z,7.61
2019-03-30T02:13:33.260Z,7.53
2019-03-30T02:14:33.258Z,7.54
2019-03-30T02:15:33.248Z,7.56
2019-03-30T02:16:33.479Z,7.61
2019-03-30T02:17:33.471Z,7.67
2019-03-30T02:18:33.216Z,7.6
2019-03-30T02:19:33.223Z,7.58
2019-03-30T02:20:35.677Z,7.61
2019-03-30T02:21:33.200Z,7.56
2019-03-30T02:22:33.186Z,7.67
2019-03-30T02:23:33.198Z,7.67
2019-03-30T02:24:33.235Z,7.63
2019-03-30T02:25:33.444Z,7.69
2019-03-30T02:26:33.431Z,7.61
2019-03-30T02:27:33.158Z,7.66
2019-03-30T02:28:33.392Z,7.56
2019-03-30T02:29:33.133Z,7.63
2019-03-30T02:30:33.446Z,7.61
2019-03-30T02:31:33.398Z,7.54
2019-03-30T02:32:33.377Z,7.54
2019-03-30T02:33:33.357Z,7.61
2019-03-30T02:34:33.359Z,7.51
2019-03-30T02:35:33.157Z,7.53
2019-03-30T02:36:33.079Z,7.58
2019-03-30T02:37:33.102Z,7.56
2019-03-30T02:38:33.081Z,7.5
2019-03-30T02:39:33.071Z,7.51
2019-03-30T02:40:33.094Z,7.56
2019-03-30T02:41:33.295Z,7.57
2019-03-30T02:42:33.068Z,7.69
2019-03-30T02:43:33.041Z,7.6
2019-03-30T02:44:33.293Z,7.7
2019-03-30T02:45:33.267Z,7.6
2019-03-30T02:46:33.264Z,7.69
2019-03-30T02:47:33.002Z,7.69
2019-03-30T02:48:33.139Z,7.79
2019-03-30T02:49:33.229Z,7.76
2019-03-30T02:50:50.892Z,7.79
2019-03-30T02:51:32.960Z,7.93
2019-03-30T02:52:33.247Z,7.94
2019-03-30T02:53:33.209Z,7.88
2019-03-30T02:54:32.943Z,7.87
2019-03-30T02:55:32.946Z,8
2019-03-30T02:56:33.195Z,7.88
2019-03-30T02:57:33.321Z,7.94
2019-03-30T02:58:33.196Z,7.95
2019-03-30T02:59:33.156Z,7.85
2019-03-30T03:00:33.145Z,7.94
2019-03-30T03:01:33.138Z,7.94
2019-03-30T03:02:32.906Z,7.88
2019-03-30T03:03:33.138Z,7.82
2019-03-30T03:04:33.124Z,7.8
2019-03-30T03:05:33.202Z,7.77
2019-03-30T03:06:32.859Z,7.79
2019-03-30T03:07:33.095Z,7.8
2019-03-30T03:08:36.479Z,7.73
2019-03-30T03:09:33.084Z,7.73
2019-03-30T03:10:33.085Z,7.72
2019-03-30T03:11:33.083Z,7.67
2019-03-30T03:12:33.079Z,7.7
2019-03-30T03:13:33.046Z,7.7
2019-03-30T03:14:32.797Z,7.75
2019-03-30T03:15:33.076Z,7.73
2019-03-30T03:16:32.768Z,7.66
2019-03-30T03:17:32.767Z,7.58
2019-03-30T03:18:33.009Z,7.58
2019-03-30T03:19:32.807Z,7.6
2019-03-30T03:20:33.045Z,7.51
2019-03-30T03:21:32.998Z,7.56
2019-03-30T03:22:32.974Z,7.56
2019-03-30T03:23:32.739Z,7.58
2019-03-30T03:24:32.713Z,7.51
2019-03-30T03:25:32.766Z,7.51
2019-03-30T03:26:33.072Z,7.43
2019-03-30T03:27:32.945Z,7.42
2019-03-30T03:28:32.934Z,7.4
2019-03-30T03:29:32.925Z,7.32
2019-03-30T03:30:33.312Z,7.35
2019-03-30T03:31:32.937Z,7.23
2019-03-30T03:32:32.928Z,7.31
2019-03-30T03:33:32.960Z,7.28
2019-03-30T03:34:32.937Z,7.24
2019-03-30T03:35:32.971Z,7.23
2019-03-30T03:36:32.869Z,7.25
2019-03-30T03:37:49.137Z,7.28
2019-03-30T03:38:32.605Z,7.33
2019-03-30T03:39:32.840Z,7.33
2019-03-30T03:40:32.837Z,7.35
2019-03-30T03:41:32.692Z,7.32
2019-03-30T03:42:32.817Z,7.29
2019-03-30T03:43:32.815Z,7.18
2019-03-30T03:44:32.599Z,7.21
2019-03-30T03:45:32.875Z,7.29
2019-03-30T03:46:32.798Z,7.29
2019-03-30T03:47:32.843Z,7.32
2019-03-30T03:48:32.765Z,7.24
2019-03-30T03:49:32.791Z,7.29
2019-03-30T03:50:32.493Z,7.18
2019-03-30T03:51:32.927Z,7.13
2019-03-30T03:52:32.905Z,7.17
2019-03-30T03:53:32.969Z,7.17
2019-03-30T03:54:32.455Z,7.2
2019-03-30T03:55:32.976Z,7.11
2019-03-30T03:56:32.919Z,6.88
2019-03-30T03:57:32.992Z,6.93
2019-03-30T03:58:32.300Z,6.92
2019-03-30T03:59:32.574Z,6.85
2019-03-30T04:00:32.761Z,6.69
2019-03-30T04:01:32.540Z,6.74
2019-03-30T04:02:32.834Z,6.72
2019-03-30T04:03:32.831Z,6.75
2019-03-30T04:04:32.941Z,6.75
2019-03-30T04:05:32.911Z,6.66
2019-03-30T04:06:32.788Z,6.67
2019-03-30T04:07:32.882Z,6.69
2019-03-30T04:08:32.532Z,6.72
2019-03-30T04:09:32.847Z,6.72
2019-03-30T04:10:32.816Z,6.66
2019-03-30T04:11:32.307Z,6.62
2019-03-30T04:12:32.559Z,6.77
2019-03-30T04:13:32.606Z,6.69
2019-03-30T04:14:32.319Z,6.59
2019-03-30T04:15:32.547Z,6.63
2019-03-30T04:16:32.522Z,6.59
2019-03-30T04:17:32.290Z,6.67
2019-03-30T04:18:32.531Z,6.6
2019-03-30T04:19:32.507Z,6.57
2019-03-30T04:20:32.226Z,6.49
2019-03-30T04:21:48.225Z,6.66
2019-03-30T04:22:32.219Z,6.51
2019-03-30T04:23:32.434Z,6.49
2019-03-30T04:24:32.178Z,6.54
2019-03-30T04:25:32.533Z,6.48
2019-03-30T04:26:32.183Z,6.51
2019-03-30T04:27:32.395Z,6.56
2019-03-30T04:28:32.386Z,6.52
2019-03-30T04:29:32.409Z,6.49
2019-03-30T04:30:32.516Z,6.46
2019-03-30T04:31:32.117Z,6.44
2019-03-30T04:32:31.887Z,6.44
2019-03-30T04:33:32.350Z,6.44
2019-03-30T04:34:31.845Z,6.41
2019-03-30T04:35:32.324Z,6.36
2019-03-30T04:36:31.831Z,6.31
2019-03-30T04:37:32.298Z,6.24
2019-03-30T04:38:32.290Z,6.26
2019-03-30T04:39:32.029Z,6.3
2019-03-30T04:40:32.104Z,6.39
2019-03-30T04:41:32.250Z,6.36
2019-03-30T04:42:32.254Z,6.27
2019-03-30T04:43:32.237Z,6.22
2019-03-30T04:44:32.227Z,6.3
2019-03-30T04:45:31.966Z,6.28
2019-03-30T04:46:32.224Z,6.27
2019-03-30T04:47:32.200Z,6.3
2019-03-30T04:48:34.495Z,6.28
2019-03-30T04:49:32.189Z,6.2
2019-03-30T04:50:32.169Z,6.19
2019-03-30T04:51:32.159Z,6.16
2019-03-30T04:52:32.131Z,6.2
2019-03-30T04:53:31.886Z,6.2
2019-03-30T04:54:31.872Z,6.26
2019-03-30T04:55:32.133Z,6.16
2019-03-30T04:56:31.945Z,6.16
2019-03-30T04:57:32.093Z,6.19
2019-03-30T04:58:32.164Z,6.19
2019-03-30T04:59:32.079Z,6.14
2019-03-30T05:00:32.063Z,6.12
2019-03-30T05:01:31.801Z,6.11
2019-03-30T05:02:32.036Z,6.08
2019-03-30T05:03:31.821Z,6.14
2019-03-30T05:04:32.033Z,6.09
2019-03-30T05:05:32.015Z,6.08
2019-03-30T05:06:31.749Z,6.07
2019-03-30T05:07:31.506Z,6.07
2019-03-30T05:08:31.981Z,5.99
2019-03-30T05:09:31.719Z,6.07
2019-03-30T05:10:31.459Z,5.98
2019-03-30T05:11:31.955Z,6.07
2019-03-30T05:12:31.691Z,5.99
2019-03-30T05:13:31.690Z,6.01
2019-03-30T05:14:31.928Z,5.98
2019-03-30T05:15:31.924Z,5.98
2019-03-30T05:16:31.898Z,6.02
2019-03-30T05:17:48.752Z,6.05
2019-03-30T05:18:31.660Z,5.97
2019-03-30T05:19:31.934Z,5.94
2019-03-30T05:20:31.616Z,5.91
2019-03-30T05:21:31.600Z,5.97
2019-03-30T05:22:31.610Z,5.97
2019-03-30T05:23:31.342Z,5.98
2019-03-30T05:24:31.563Z,5.98
2019-03-30T05:25:31.573Z,5.97
2019-03-30T05:26:31.547Z,5.97
2019-03-30T05:27:31.781Z,5.91
2019-03-30T05:28:31.793Z,5.97
2019-03-30T05:29:31.772Z,6.01
2019-03-30T05:30:31.764Z,5.94
2019-03-30T05:31:31.253Z,5.89
2019-03-30T05:32:31.237Z,5.89
2019-03-30T05:33:31.730Z,5.91
2019-03-30T05:34:31.497Z,5.93
2019-03-30T05:35:31.454Z,5.99
2019-03-30T05:36:31.210Z,6.01
2019-03-30T05:37:31.684Z,5.99
2019-03-30T05:38:31.683Z,6.12
2019-03-30T05:39:31.425Z,6.2
2019-03-30T05:40:31.411Z,6.14
2019-03-30T05:41:31.155Z,6.14
2019-03-30T05:42:31.394Z,6.08
2019-03-30T05:43:31.131Z,6.09
2019-03-30T05:44:31.369Z,5.97
2019-03-30T05:45:31.601Z,6.01
2019-03-30T05:46:31.093Z,6.01
2019-03-30T05:47:31.579Z,6.02
2019-03-30T05:48:31.566Z,6.02
2019-03-30T05:49:31.324Z,6.14
2019-03-30T05:50:31.299Z,6.08
2019-03-30T05:51:31.287Z,6.12
2019-03-30T05:52:31.650Z,6.11
2019-03-30T05:53:31.514Z,6.28
2019-03-30T05:54:31.508Z,6.28
2019-03-30T05:55:31.490Z,6.3
2019-03-30T05:56:30.982Z,6.27
2019-03-30T05:57:31.223Z,6.35
2019-03-30T05:58:31.467Z,6.35
2019-03-30T05:59:31.464Z,6.44
2019-03-30T06:00:30.950Z,6.41
2019-03-30T06:01:31.185Z,6.33
2019-03-30T06:02:31.507Z,6.33
2019-03-30T06:03:31.424Z,6.41
2019-03-30T06:04:31.411Z,6.46
2019-03-30T06:05:31.157Z,6.48
2019-03-30T06:06:31.135Z,6.6
2019-03-30T06:07:31.413Z,6.63
2019-03-30T06:08:31.370Z,6.54
2019-03-30T06:09:31.358Z,6.59
2019-03-30T06:10:31.098Z,6.48
2019-03-30T06:11:31.336Z,6.59
2019-03-30T06:12:31.195Z,6.54
2019-03-30T06:13:31.080Z,6.63
2019-03-30T06:14:31.086Z,6.57
2019-03-30T06:15:31.054Z,6.62
2019-03-30T06:16:30.798Z,6.66
2019-03-30T06:17:31.033Z,6.69
2019-03-30T06:18:31.061Z,6.69
2019-03-30T06:19:30.779Z,6.72
2019-03-30T06:20:31.015Z,6.87
2019-03-30T06:21:31.241Z,6.84
2019-03-30T06:22:44.217Z,6.89
2019-03-30T06:23:31.227Z,7.07
2019-03-30T06:24:31.005Z,7.13
2019-03-30T06:25:31.224Z,7.13
2019-03-30T06:26:30.957Z,7.14
2019-03-30T06:27:30.943Z,7.28
2019-03-30T06:28:31.188Z,7.36
2019-03-30T06:29:30.930Z,7.43
2019-03-30T06:30:31.187Z,7.51
2019-03-30T06:31:30.907Z,7.53
2019-03-30T06:32:31.146Z,7.53
2019-03-30T06:33:30.896Z,7.54
2019-03-30T06:34:31.148Z,7.67
2019-03-30T06:35:31.128Z,7.6
2019-03-30T06:36:30.864Z,7.6
2019-03-30T06:37:31.126Z,7.73
2019-03-30T06:38:31.098Z,7.7
2019-03-30T06:39:30.899Z,7.72
2019-03-30T06:40:31.641Z,7.9
2019-03-30T06:41:30.847Z,7.97
2019-03-30T06:42:31.068Z,8.03
2019-03-30T06:43:30.811Z,8.06
2019-03-30T06:44:31.087Z,8.16
2019-03-30T06:45:31.052Z,8.2
2019-03-30T06:46:31.048Z,8.16
2019-03-30T06:47:31.056Z,8.3
2019-03-30T06:48:31.027Z,8.42
2019-03-30T06:49:30.780Z,8.91
2019-03-30T06:50:30.764Z,9.5
2019-03-30T06:51:30.509Z,10.15
2019-03-30T06:52:31.011Z,10.72
2019-03-30T06:53:30.504Z,11.29
2019-03-30T06:54:30.487Z,11.69
2019-03-30T06:55:30.753Z,12.04
2019-03-30T06:56:30.971Z,12.39
2019-03-30T06:57:30.577Z,12.76
2019-03-30T06:58:33.222Z,13
2019-03-30T06:59:30.972Z,13.04
2019-03-30T07:00:30.983Z,13.16
2019-03-30T07:01:31.002Z,13.16
2019-03-30T07:02:30.708Z,13.19
2019-03-30T07:03:30.980Z,13.25
2019-03-30T07:04:30.702Z,12.94
2019-03-30T07:05:30.960Z,12.67
2019-03-30T07:06:30.721Z,12.46
2019-03-30T07:07:30.466Z,12.46
2019-03-30T07:08:30.947Z,12.43
2019-03-30T07:09:30.697Z,12.49
2019-03-30T07:10:30.945Z,12.68
2019-03-30T07:11:30.945Z,12.75
2019-03-30T07:12:30.690Z,12.7
2019-03-30T07:13:30.956Z,12.5
2019-03-30T07:14:30.682Z,12.55
2019-03-30T07:15:30.945Z,12.65
2019-03-30T07:16:30.944Z,12.8
2019-03-30T07:17:30.924Z,12.82
2019-03-30T07:18:30.932Z,12.94
2019-03-30T07:19:30.693Z,13.15
2019-03-30T07:20:30.699Z,13.53
2019-03-30T07:21:30.673Z,14
2019-03-30T07:22:30.684Z,14.33
2019-03-30T07:23:30.681Z,14.7
2019-03-30T07:24:30.671Z,14.99
2019-03-30T07:25:30.416Z,15.18
2019-03-30T07:26:30.436Z,15.28
2019-03-30T07:27:30.924Z,15.52
2019-03-30T07:28:30.682Z,15.65
2019-03-30T07:29:30.681Z,15.65
2019-03-30T07:30:30.920Z,15.79
2019-03-30T07:31:30.925Z,15.82
2019-03-30T07:32:30.679Z,15.94
2019-03-30T07:33:30.673Z,15.76
2019-03-30T07:34:30.924Z,15.86
2019-03-30T07:35:30.468Z,16.09
2019-03-30T07:36:30.707Z,16.15
2019-03-30T07:37:30.918Z,16.36
2019-03-30T07:38:30.458Z,16.46
2019-03-30T07:39:30.690Z,16.74
2019-03-30T07:40:33.798Z,16.79
2019-03-30T07:41:30.441Z,16.83
2019-03-30T07:42:30.439Z,16.86
2019-03-30T07:43:30.930Z,16.84
2019-03-30T07:44:30.685Z,16.9
2019-03-30T07:45:30.688Z,16.96
2019-03-30T07:46:30.946Z,17.08
2019-03-30T07:47:30.441Z,17.16
2019-03-30T07:48:30.694Z,17.31
2019-03-30T07:49:30.705Z,17.39
2019-03-30T07:50:30.967Z,17.49
2019-03-30T07:51:33.344Z,17.48
2019-03-30T07:52:30.972Z,17.48
2019-03-30T07:53:46.133Z,17.54
2019-03-30T07:54:30.986Z,17.64
2019-03-30T07:55:30.703Z,17.65
2019-03-30T07:56:30.463Z,17.74
2019-03-30T07:57:30.955Z,17.83
2019-03-30T07:58:30.962Z,17.7
2019-03-30T07:59:31.015Z,17.83
2019-03-30T08:00:35.675Z,18.08
2019-03-30T08:01:30.983Z,18.28
2019-03-30T08:02:30.980Z,18.56
2019-03-30T08:03:30.734Z,18.68
2019-03-30T08:04:33.538Z,18.81
2019-03-30T08:05:31.000Z,19.09
2019-03-30T08:06:30.733Z,19.12
2019-03-30T08:07:31.006Z,19.3
2019-03-30T08:08:31.023Z,19.44
2019-03-30T08:09:31.000Z,19.33
2019-03-30T08:10:30.518Z,19.36
2019-03-30T08:11:30.763Z,19.36
2019-03-30T08:12:31.003Z,19.31
2019-03-30T08:13:30.520Z,19.33
2019-03-30T08:14:30.774Z,19.24
2019-03-30T08:15:31.019Z,19.16
2019-03-30T08:16:30.775Z,18.99
2019-03-30T08:17:30.778Z,18.98
2019-03-30T08:18:30.534Z,18.96
2019-03-30T08:19:30.790Z,19.08
2019-03-30T08:20:31.062Z,18.83
2019-03-30T08:21:30.535Z,19.09
2019-03-30T08:22:31.042Z,19.14
2019-03-30T08:23:44.345Z,19.12
2019-03-30T08:24:32.154Z,19
2019-03-30T08:25:31.065Z,18.96
2019-03-30T08:26:30.553Z,19.07
2019-03-30T08:27:30.818Z,19.14
2019-03-30T08:28:31.096Z,18.86
2019-03-30T08:29:30.821Z,18.62
2019-03-30T08:30:30.851Z,18.18
2019-03-30T08:31:31.100Z,17.63
2019-03-30T08:32:30.822Z,16.96
2019-03-30T08:33:30.863Z,16.38
2019-03-30T08:34:31.075Z,15.95
2019-03-30T08:35:30.831Z,15.57
2019-03-30T08:36:31.101Z,15.07
2019-03-30T08:37:31.086Z,14.81
2019-03-30T08:38:31.083Z,14.45
2019-03-30T08:39:30.861Z,14.23
2019-03-30T08:40:31.086Z,14.07
2019-03-30T08:41:30.836Z,13.87
2019-03-30T08:42:30.608Z,13.86
2019-03-30T08:43:30.588Z,13.92
2019-03-30T08:44:30.874Z,13.87
2019-03-30T08:45:30.588Z,13.87
2019-03-30T08:46:30.864Z,13.77
2019-03-30T08:47:30.597Z,13.85
2019-03-30T08:48:30.844Z,13.81
2019-03-30T08:49:30.840Z,13.95
2019-03-30T08:50:31.107Z,13.97
2019-03-30T08:51:30.843Z,13.93
2019-03-30T08:52:30.852Z,14.1
2019-03-30T08:53:31.098Z,14.05
2019-03-30T08:54:30.835Z,13.93
2019-03-30T08:55:30.839Z,14
2019-03-30T08:56:32.848Z,14.14
2019-03-30T08:57:30.835Z,14.12
2019-03-30T08:58:30.836Z,14.15
2019-03-30T08:59:30.839Z,14.3
2019-03-30T09:00:30.908Z,14.35
2019-03-30T09:01:31.094Z,14.41
2019-03-30T09:02:31.087Z,14.45
2019-03-30T09:03:33.818Z,14.62
2019-03-30T09:04:30.851Z,14.63
2019-03-30T09:05:30.848Z,14.68
2019-03-30T09:06:30.825Z,14.79
2019-03-30T09:07:31.124Z,14.77
2019-03-30T09:08:31.082Z,14.82
2019-03-30T09:09:30.573Z,14.86
2019-03-30T09:10:31.077Z,14.89
2019-03-30T09:11:31.067Z,15
2019-03-30T09:12:30.576Z,15.1
2019-03-30T09:13:31.072Z,15.04
2019-03-30T09:14:30.840Z,15.15
2019-03-30T09:15:30.825Z,15.17
2019-03-30T09:16:30.567Z,15.24
2019-03-30T09:17:30.821Z,15.21
2019-03-30T09:18:30.832Z,15.28
2019-03-30T09:19:30.811Z,15.25
2019-03-30T09:20:30.822Z,15.28
2019-03-30T09:21:30.582Z,15.31
2019-03-30T09:22:31.047Z,15.29
2019-03-30T09:23:31.058Z,15.35
2019-03-30T09:24:30.818Z,15.4
2019-03-30T09:25:31.067Z,15.39
2019-03-30T09:26:30.805Z,15.36
2019-03-30T09:27:30.799Z,15.46
2019-03-30T09:28:30.799Z,15.4
2019-03-30T09:29:30.809Z,15.57
2019-03-30T09:30:31.049Z,15.61
2019-03-30T09:31:30.546Z,15.65
2019-03-30T09:32:31.057Z,15.75
2019-03-30T09:33:30.546Z,15.84
2019-03-30T09:34:31.054Z,15.95
2019-03-30T09:35:31.036Z,15.98
2019-03-30T09:36:31.167Z,16.08
2019-03-30T09:37:30.802Z,16.1
2019-03-30T09:38:30.789Z,16.16
2019-03-30T09:39:30.784Z,16.17
2019-03-30T09:40:31.038Z,16.15
2019-03-30T09:41:30.547Z,16.17
2019-03-30T09:42:31.041Z,16.16
2019-03-30T09:43:31.025Z,16.24
2019-03-30T09:44:30.780Z,16.33
2019-03-30T09:45:30.796Z,16.42
2019-03-30T09:46:30.790Z,16.5
2019-03-30T09:47:31.033Z,16.47
2019-03-30T09:48:30.538Z,16.61
2019-03-30T09:49:31.044Z,16.66
2019-03-30T09:50:31.037Z,16.64
2019-03-30T09:51:30.788Z,16.71
2019-03-30T09:52:31.049Z,16.74
2019-03-30T09:53:31.074Z,16.74
2019-03-30T09:54:31.015Z,16.71
2019-03-30T09:55:32.173Z,16.87
2019-03-30T09:56:30.775Z,16.78
2019-03-30T09:57:31.028Z,16.78
2019-03-30T09:58:30.771Z,16.83
2019-03-30T09:59:31.046Z,16.94
2019-03-30T10:00:31.010Z,16.94
2019-03-30T10:01:31.023Z,17.02
2019-03-30T10:02:31.032Z,17.01
2019-03-30T10:03:31.022Z,17.02
2019-03-30T10:04:30.779Z,17.14
2019-03-30T10:05:31.011Z,17.2
2019-03-30T10:06:39.064Z,17.3
2019-03-30T10:07:31.036Z,17.33
2019-03-30T10:08:31.019Z,17.39
2019-03-30T10:09:30.776Z,17.36
2019-03-30T10:10:30.773Z,17.42
2019-03-30T10:11:31.009Z,17.49
2019-03-30T10:12:31.018Z,17.48
2019-03-30T10:13:30.784Z,17.51
2019-03-30T10:14:31.024Z,17.49
2019-03-30T10:15:31.062Z,17.42
2019-03-30T10:16:31.014Z,17.36
2019-03-30T10:17:30.784Z,17.3
2019-03-30T10:18:31.018Z,17.39
2019-03-30T10:19:32.470Z,17.34
2019-03-30T10:20:30.769Z,17.38
2019-03-30T10:21:30.525Z,17.38
2019-03-30T10:22:31.030Z,17.51
2019-03-30T10:23:30.755Z,17.57
2019-03-30T10:24:42.558Z,17.72
2019-03-30T10:25:30.771Z,17.7
2019-03-30T10:26:30.522Z,17.82
2019-03-30T10:27:31.092Z,17.76
2019-03-30T10:28:30.784Z,17.65
2019-03-30T10:29:31.017Z,17.52
2019-03-30T10:30:31.057Z,17.52
2019-03-30T10:31:30.771Z,17.45
2019-03-30T10:32:30.781Z,17.41
2019-03-30T10:33:31.013Z,17.46
2019-03-30T10:34:30.519Z,17.48
2019-03-30T10:35:30.760Z,17.65
2019-03-30T10:36:31.003Z,17.71
2019-03-30T10:37:31.009Z,17.89
2019-03-30T10:38:31.015Z,18.08
2019-03-30T10:39:31.006Z,18.11
2019-03-30T10:40:31.027Z,18.31
2019-03-30T10:41:30.763Z,18.31
2019-03-30T10:42:31.026Z,18.45
2019-03-30T10:43:30.999Z,18.47
2019-03-30T10:44:30.522Z,18.59
2019-03-30T10:45:30.766Z,18.5
2019-03-30T10:46:30.758Z,18.53
2019-03-30T10:47:31.025Z,18.53
2019-03-30T10:48:31.013Z,18.53
2019-03-30T10:49:31.018Z,18.5
2019-03-30T10:50:31.022Z,18.56
2019-03-30T10:51:31.040Z,18.6
2019-03-30T10:52:30.776Z,18.63
2019-03-30T10:53:31.009Z,18.65
2019-03-30T10:54:31.037Z,18.63
2019-03-30T10:55:30.767Z,18.66
2019-03-30T10:56:31.010Z,18.55
2019-03-30T10:57:30.780Z,18.65
2019-03-30T10:58:31.020Z,18.55
2019-03-30T10:59:31.046Z,18.66
2019-03-30T11:00:30.770Z,18.55
2019-03-30T11:01:30.769Z,18.41
2019-03-30T11:02:30.769Z,18.31
2019-03-30T11:03:31.013Z,18.28
2019-03-30T11:04:30.776Z,18.28
2019-03-30T11:05:31.026Z,18.28
2019-03-30T11:06:31.024Z,18.34
2019-03-30T11:07:31.020Z,18.53
2019-03-30T11:08:31.047Z,18.65
2019-03-30T11:09:31.014Z,18.75
2019-03-30T11:10:31.018Z,18.88
2019-03-30T11:11:31.181Z,18.81
2019-03-30T11:12:31.022Z,18.9
2019-03-30T11:13:31.063Z,19.07
2019-03-30T11:14:30.792Z,19.09
2019-03-30T11:15:33.863Z,19.08
2019-03-30T11:16:30.782Z,19.07
2019-03-30T11:17:30.783Z,19
2019-03-30T11:18:30.776Z,18.93
2019-03-30T11:19:30.785Z,18.81
2019-03-30T11:20:31.033Z,18.9
2019-03-30T11:21:31.027Z,18.7
2019-03-30T11:22:31.057Z,18.7
2019-03-30T11:23:31.025Z,18.78
2019-03-30T11:24:30.784Z,18.65
2019-03-30T11:25:30.799Z,18.65
2019-03-30T11:26:30.685Z,18.77
2019-03-30T11:27:30.788Z,18.83
2019-03-30T11:28:30.783Z,18.88
2019-03-30T11:29:30.778Z,18.95
2019-03-30T11:30:30.798Z,19.04
2019-03-30T11:31:30.540Z,19.04
2019-03-30T11:32:31.074Z,19
2019-03-30T11:33:31.043Z,19.07
2019-03-30T11:34:30.815Z,19.14
2019-03-30T11:35:31.160Z,19.18
2019-03-30T11:36:30.793Z,19.18
2019-03-30T11:37:30.593Z,19.26
2019-03-30T11:38:30.792Z,19.29
2019-03-30T11:39:31.031Z,19.3
2019-03-30T11:40:31.099Z,19.36
2019-03-30T11:41:31.863Z,19.33
2019-03-30T11:42:30.816Z,19.29
2019-03-30T11:43:30.574Z,19.08
2019-03-30T11:44:30.812Z,19.11
2019-03-30T11:45:31.072Z,19.11
2019-03-30T11:46:30.880Z,19.19
2019-03-30T11:47:30.623Z,19.15
2019-03-30T11:48:31.115Z,19.11
2019-03-30T11:49:30.861Z,19.07
2019-03-30T11:50:31.275Z,19.07
2019-03-30T11:51:30.653Z,19.09
2019-03-30T11:52:30.818Z,18.99
2019-03-30T11:53:30.571Z,18.99
2019-03-30T11:54:31.127Z,19
2019-03-30T11:55:31.072Z,18.95
2019-03-30T11:56:31.067Z,18.95
2019-03-30T11:57:31.064Z,18.88
2019-03-30T11:58:30.821Z,18.92
2019-03-30T11:59:30.833Z,19.11
2019-03-30T12:00:31.068Z,19.14
2019-03-30T12:01:31.096Z,19.16
2019-03-30T12:02:32.967Z,19.16
2019-03-30T12:03:30.601Z,19.27
2019-03-30T12:04:30.829Z,19.31
2019-03-30T12:05:30.814Z,19.39
2019-03-30T12:06:31.073Z,19.24
2019-03-30T12:07:31.070Z,19.31
2019-03-30T12:08:30.574Z,19.33
2019-03-30T12:09:30.812Z,19.31
2019-03-30T12:10:30.587Z,19.34
2019-03-30T12:11:30.869Z,19.27
2019-03-30T12:12:30.824Z,19.31
2019-03-30T12:13:30.577Z,19.4
2019-03-30T12:14:31.070Z,19.54
2019-03-30T12:15:30.825Z,19.49
2019-03-30T12:16:30.941Z,19.52
2019-03-30T12:17:31.140Z,19.52
2019-03-30T12:18:30.825Z,19.47
2019-03-30T12:19:30.577Z,19.49
2019-03-30T12:20:31.080Z,19.45
2019-03-30T12:21:30.820Z,19.4
2019-03-30T12:22:30.817Z,19.29
2019-03-30T12:23:30.818Z,19.4
2019-03-30T12:24:31.075Z,19.34
2019-03-30T12:25:40.284Z,19.3
2019-03-30T12:26:30.848Z,19.33
2019-03-30T12:27:30.843Z,19.33
2019-03-30T12:28:31.075Z,19.31
2019-03-30T12:29:30.832Z,19.4
2019-03-30T12:30:31.112Z,19.34
2019-03-30T12:31:31.075Z,19.41
2019-03-30T12:32:30.832Z,19.52
2019-03-30T12:33:31.078Z,19.49
2019-03-30T12:34:31.138Z,19.47
2019-03-30T12:35:30.906Z,19.52
2019-03-30T12:36:31.094Z,19.59
2019-03-30T12:37:30.838Z,19.69
2019-03-30T12:38:31.087Z,19.58
2019-03-30T12:39:30.587Z,19.58
2019-03-30T12:40:31.103Z,19.58
2019-03-30T12:41:31.083Z,19.63
2019-03-30T12:42:30.853Z,19.54
2019-03-30T12:43:31.095Z,19.52
2019-03-30T12:44:31.083Z,19.49
2019-03-30T12:45:30.853Z,19.51
2019-03-30T12:46:30.588Z,19.44
2019-03-30T12:47:30.845Z,19.45
2019-03-30T12:48:30.837Z,19.52
2019-03-30T12:49:31.112Z,19.51
2019-03-30T12:50:30.841Z,19.64
2019-03-30T12:51:30.847Z,19.73
2019-03-30T12:52:31.450Z,19.77
2019-03-30T12:53:30.598Z,19.85
2019-03-30T12:54:31.102Z,19.92
2019-03-30T12:55:30.616Z,19.95
2019-03-30T12:56:30.858Z,20.09
2019-03-30T12:57:30.857Z,20.07
2019-03-30T12:58:31.097Z,20.14
2019-03-30T12:59:31.095Z,20.1
2019-03-30T13:00:30.868Z,20.04
2019-03-30T13:01:31.141Z,20.04
2019-03-30T13:02:30.855Z,19.91
2019-03-30T13:03:31.108Z,19.94
2019-03-30T13:04:31.175Z,19.85
2019-03-30T13:05:30.875Z,19.81
2019-03-30T13:06:31.180Z,19.82
2019-03-30T13:07:30.988Z,19.79
2019-03-30T13:08:31.161Z,19.85
2019-03-30T13:09:30.876Z,19.88